Terminal Aerodrome Forecast
Issued by NWS

Home | Current Version | Previous Version | Graphics & Text | Print | Product List | Glossary On
Versions: 1 2 3 4 5 6 7 8 9 10 11 12 13 14 15 16 17
000
FTUS43 KDLH 252000 AAA
TAFHIB
TAF AMD
KHIB 252001Z 2520/2618 06010G17KT P6SM -RA OVC035
      TEMPO 2520/2524 3SM -RA BR OVC015
     FM260000 05012G20KT 3SM BR OVC015
      TEMPO 2600/2602 1SM -RA BR OVC007
     FM260200 35006KT 1SM -SHRA BR OVC007
     FM261400 VRB03KT P6SM BKN025=

USA.gov is the U.S. government's official web portal to all federal, state and local government web resources and services.